createdAt,value
2022-08-19T00:01:28.694Z,14.60
2022-08-19T00:03:59.648Z,14.43
2022-08-19T00:06:28.153Z,12.80
2022-08-19T00:08:56.830Z,13.38
2022-08-19T00:11:28.810Z,13.27
2022-08-19T00:13:58.081Z,13.20
2022-08-19T00:16:27.286Z,15.32
2022-08-19T00:18:56.782Z,13.10
2022-08-19T00:21:25.729Z,12.55
2022-08-19T00:23:54.353Z,14.32
2022-08-19T00:26:22.562Z,14.25
2022-08-19T00:28:52.525Z,14.77
2022-08-19T00:31:20.571Z,13.60
2022-08-19T00:33:49.129Z,14.10
2022-08-19T00:36:17.176Z,13.43
2022-08-19T00:38:45.782Z,13.20
2022-08-19T00:41:15.767Z,13.75
2022-08-19T00:43:44.237Z,12.93
2022-08-19T00:46:13.910Z,12.73
2022-08-19T00:48:42.708Z,12.68
2022-08-19T00:51:11.397Z,13.02
2022-08-19T00:53:40.627Z,13.45
2022-08-19T00:56:09.793Z,13.38
2022-08-19T00:58:38.238Z,14.02
2022-08-19T01:01:08.645Z,13.57
2022-08-19T01:03:56.854Z,11.35
2022-08-19T01:06:27.611Z,13.02
2022-08-19T01:08:56.902Z,13.85
2022-08-19T01:11:24.897Z,13.75
2022-08-19T01:13:55.462Z,13.02
2022-08-19T01:16:27.398Z,12.15
2022-08-19T01:18:57.720Z,14.07
2022-08-19T01:21:33.090Z,13.57
2022-08-19T01:24:02.927Z,12.15
2022-08-19T01:26:31.480Z,13.52
2022-08-19T01:29:02.333Z,14.75
2022-08-19T01:31:33.480Z,14.10
2022-08-19T01:34:03.650Z,13.60
2022-08-19T01:36:34.243Z,13.90
2022-08-19T01:39:07.470Z,14.00
2022-08-19T01:41:36.066Z,15.27
2022-08-19T01:44:17.654Z,14.15
2022-08-19T01:46:49.098Z,15.60
2022-08-19T01:49:19.977Z,14.82
2022-08-19T01:51:48.998Z,14.55
2022-08-19T01:54:23.418Z,14.40
2022-08-19T01:57:01.286Z,15.38
2022-08-19T01:59:30.573Z,14.32
2022-08-19T02:01:58.816Z,14.75
2022-08-19T02:04:28.520Z,13.95
2022-08-19T02:06:56.430Z,13.98
2022-08-19T02:09:26.332Z,13.73
2022-08-19T02:11:54.719Z,14.27
2022-08-19T02:14:22.631Z,14.48
2022-08-19T02:16:51.223Z,15.20
2022-08-19T02:19:19.244Z,14.35
2022-08-19T02:21:48.491Z,15.23
2022-08-19T02:24:16.399Z,14.80
2022-08-19T02:26:46.840Z,15.02
2022-08-19T02:29:15.089Z,14.77
2022-08-19T02:31:43.745Z,15.63
2022-08-19T02:34:12.208Z,15.05
2022-08-19T02:36:42.297Z,15.10
2022-08-19T02:39:10.077Z,14.32
2022-08-19T02:41:38.513Z,15.65
2022-08-19T02:44:29.715Z,13.85
2022-08-19T02:46:56.823Z,15.25
2022-08-19T02:49:24.854Z,14.55
2022-08-19T02:51:53.106Z,14.20
2022-08-19T02:54:21.590Z,17.15
2022-08-19T02:56:50.680Z,15.05
2022-08-19T02:59:20.204Z,15.77
2022-08-19T03:01:51.634Z,15.75
2022-08-19T03:04:20.172Z,15.50
2022-08-19T03:06:50.300Z,14.30
2022-08-19T03:09:19.269Z,14.90
2022-08-19T03:11:48.670Z,15.18
2022-08-19T03:14:21.922Z,15.75
2022-08-19T03:16:52.589Z,16.80
2022-08-19T03:19:22.422Z,16.55
2022-08-19T03:21:50.785Z,17.85
2022-08-19T03:24:19.751Z,18.45
2022-08-19T03:26:50.030Z,17.50
2022-08-19T03:29:31.133Z,16.17
2022-08-19T03:32:04.760Z,18.00
2022-08-19T03:34:36.318Z,14.88
2022-08-19T03:37:09.070Z,16.23
2022-08-19T03:39:39.035Z,15.65
2022-08-19T03:42:38.793Z,16.42
2022-08-19T03:44:56.156Z,16.58
2022-08-19T03:47:26.882Z,17.35
2022-08-19T03:49:54.915Z,17.55
2022-08-19T03:52:23.206Z,16.58
2022-08-19T03:54:51.164Z,17.50
2022-08-19T03:57:19.588Z,16.85
2022-08-19T03:59:47.532Z,17.25
2022-08-19T04:02:15.960Z,15.02
2022-08-19T04:04:46.078Z,16.98
2022-08-19T04:07:17.294Z,15.70
2022-08-19T04:09:45.626Z,17.95
2022-08-19T04:12:13.861Z,17.80
2022-08-19T04:14:42.660Z,17.33
2022-08-19T04:17:10.645Z,16.60
2022-08-19T04:19:39.887Z,17.48
2022-08-19T04:22:09.218Z,16.80
2022-08-19T04:24:37.885Z,17.05
2022-08-19T04:27:07.411Z,19.05
2022-08-19T04:29:36.038Z,17.38
2022-08-19T04:32:09.413Z,16.90
2022-08-19T04:35:01.626Z,18.67
2022-08-19T04:37:29.558Z,18.80
2022-08-19T04:40:22.890Z,19.67
2022-08-19T04:42:51.195Z,18.38
2022-08-19T04:45:19.198Z,17.98
2022-08-19T04:47:58.698Z,17.30
2022-08-19T04:50:34.947Z,17.23
2022-08-19T04:53:06.171Z,16.73
2022-08-19T04:55:38.270Z,16.15
2022-08-19T04:58:07.604Z,17.10
2022-08-19T05:00:36.234Z,17.25
2022-08-19T05:03:07.578Z,17.02
2022-08-19T05:05:45.309Z,17.98
2022-08-19T05:08:19.450Z,16.45
2022-08-19T05:10:59.570Z,17.25
2022-08-19T05:13:28.656Z,18.67
2022-08-19T05:15:57.980Z,17.77
2022-08-19T05:18:46.163Z,16.95
2022-08-19T05:21:35.076Z,17.70
2022-08-19T05:24:05.208Z,18.08
2022-08-19T05:26:33.142Z,17.88
2022-08-19T05:29:01.179Z,18.08
2022-08-19T05:31:29.379Z,18.05
2022-08-19T05:33:59.879Z,19.15
2022-08-19T05:36:27.963Z,19.13
2022-08-19T05:38:56.940Z,19.63
2022-08-19T05:41:31.870Z,18.90
2022-08-19T05:44:01.068Z,15.70
2022-08-19T05:46:29.385Z,18.48
2022-08-19T05:48:58.110Z,19.90
2022-08-19T05:51:29.079Z,18.00
2022-08-19T05:53:58.012Z,19.35
2022-08-19T05:56:27.796Z,18.90
2022-08-19T05:58:56.025Z,18.83
2022-08-19T06:01:28.594Z,16.10
2022-08-19T06:03:56.938Z,17.40
2022-08-19T06:06:25.228Z,18.95
2022-08-19T06:08:53.176Z,18.23
2022-08-19T06:11:23.663Z,17.67
2022-08-19T06:13:59.649Z,17.75
2022-08-19T06:16:29.111Z,18.35
2022-08-19T06:18:58.395Z,18.65
2022-08-19T06:21:29.218Z,17.20
2022-08-19T06:23:58.519Z,16.13
2022-08-19T06:26:27.434Z,15.23
2022-08-19T06:28:57.302Z,16.10
2022-08-19T06:31:27.037Z,15.45
2022-08-19T06:33:55.292Z,13.75
2022-08-19T06:36:28.121Z,16.10
2022-08-19T06:38:58.236Z,15.27
2022-08-19T06:41:26.923Z,16.65
2022-08-19T06:43:57.381Z,16.85
2022-08-19T06:46:27.263Z,16.17
2022-08-19T06:48:55.828Z,15.98
2022-08-19T06:51:25.644Z,15.68
2022-08-19T06:53:58.608Z,15.23
2022-08-19T06:56:32.035Z,15.38
2022-08-19T06:59:02.452Z,15.13
2022-08-19T07:01:30.621Z,15.63
2022-08-19T07:03:58.730Z,14.93
2022-08-19T07:06:43.760Z,16.23
2022-08-19T07:09:14.191Z,14.15
2022-08-19T07:11:47.602Z,14.00
2022-08-19T07:14:20.017Z,14.55
2022-08-19T07:16:49.927Z,13.02
2022-08-19T07:19:19.353Z,14.82
2022-08-19T07:21:48.510Z,14.20
2022-08-19T07:24:17.655Z,14.38
2022-08-19T07:26:46.269Z,13.05
2022-08-19T07:29:14.971Z,13.63
2022-08-19T07:31:44.944Z,12.75
2022-08-19T07:34:14.892Z,13.93
2022-08-19T07:36:44.330Z,13.13
2022-08-19T07:39:14.876Z,12.40
2022-08-19T07:41:43.384Z,12.32
2022-08-19T07:44:11.919Z,12.20
2022-08-19T07:46:47.264Z,12.63
2022-08-19T07:49:20.298Z,12.02
2022-08-19T07:51:50.020Z,12.52
2022-08-19T07:54:18.511Z,13.90
2022-08-19T07:56:46.868Z,14.13
2022-08-19T08:10:30.979Z,12.68
2022-08-19T08:13:09.730Z,12.00
2022-08-19T08:15:42.723Z,13.18
2022-08-19T08:18:12.714Z,12.55
2022-08-19T08:20:42.874Z,13.25
2022-08-19T08:23:27.281Z,12.80
2022-08-19T08:26:00.130Z,13.20
2022-08-19T08:28:30.636Z,12.77
2022-08-19T08:30:59.885Z,11.93
2022-08-19T08:33:34.158Z,12.55
2022-08-19T08:36:04.301Z,12.55
2022-08-19T08:38:43.003Z,11.02
2022-08-19T08:41:24.464Z,10.10
2022-08-19T08:43:54.556Z,10.70
2022-08-19T08:46:32.728Z,10.73
2022-08-19T08:49:10.007Z,10.57
2022-08-19T08:51:44.815Z,11.13
2022-08-19T08:54:21.718Z,11.00
2022-08-19T08:56:55.751Z,9.48
2022-08-19T08:59:33.217Z,10.23
2022-08-19T09:02:02.271Z,10.50
2022-08-19T09:04:31.238Z,9.45
2022-08-19T09:07:35.003Z,10.45
2022-08-19T09:10:17.851Z,9.60
2022-08-19T09:13:01.402Z,11.05
2022-08-19T09:15:37.454Z,9.52
2022-08-19T09:18:07.488Z,9.20
2022-08-19T09:20:36.066Z,7.82
2022-08-19T09:23:11.837Z,7.28
2022-08-19T09:25:41.141Z,7.68
2022-08-19T09:28:20.338Z,7.70
2022-08-19T09:30:52.927Z,7.70
2022-08-19T09:33:21.764Z,7.38
2022-08-19T09:35:53.587Z,7.75
2022-08-19T09:38:22.445Z,8.05
2022-08-19T09:40:51.613Z,7.25
2022-08-19T09:43:33.584Z,6.93
2022-08-19T09:46:11.100Z,5.82
2022-08-19T09:48:40.816Z,6.85
2022-08-19T09:51:12.730Z,6.53
2022-08-19T09:53:41.465Z,7.03
2022-08-19T09:56:10.306Z,7.47
2022-08-19T09:58:41.631Z,7.05
2022-08-19T10:01:11.494Z,6.90
2022-08-19T10:03:40.074Z,6.68
2022-08-19T10:06:15.063Z,6.32
2022-08-19T10:08:50.402Z,5.97
2022-08-19T10:11:27.174Z,7.68
2022-08-19T10:13:58.418Z,6.80
2022-08-19T10:16:30.383Z,6.60
2022-08-19T10:19:00.290Z,6.97
2022-08-19T10:21:35.221Z,7.32
2022-08-19T10:24:07.551Z,6.63
2022-08-19T10:26:42.862Z,6.60
2022-08-19T10:29:12.737Z,6.88
2022-08-19T10:31:59.809Z,7.10
2022-08-19T10:34:30.911Z,6.78
2022-08-19T10:37:01.927Z,6.18
2022-08-19T10:39:32.947Z,6.30
2022-08-19T10:42:13.932Z,5.30
2022-08-19T10:44:44.394Z,5.45
2022-08-19T10:47:17.751Z,6.13
2022-08-19T10:50:12.285Z,5.32
2022-08-19T10:52:49.118Z,5.13
2022-08-19T10:55:39.759Z,5.35
2022-08-19T10:58:14.135Z,4.70
2022-08-19T11:00:45.171Z,4.85
2022-08-19T11:03:13.612Z,4.72
2022-08-19T11:05:42.219Z,5.00
2022-08-19T11:08:23.093Z,5.03
2022-08-19T11:11:00.154Z,5.53
2022-08-19T11:13:29.975Z,5.40
2022-08-19T11:16:07.834Z,5.65
2022-08-19T11:18:39.747Z,5.60
2022-08-19T11:21:10.967Z,5.15
2022-08-19T11:23:40.251Z,5.47
2022-08-19T11:26:09.003Z,4.88
2022-08-19T11:28:38.323Z,4.57
2022-08-19T11:31:12.699Z,5.18
2022-08-19T11:33:41.245Z,4.82
2022-08-19T11:36:10.399Z,4.97
2022-08-19T11:38:43.967Z,5.78
2022-08-19T11:41:12.459Z,5.68
2022-08-19T11:43:41.414Z,5.07
2022-08-19T11:46:15.523Z,5.43
2022-08-19T11:48:44.461Z,5.38
2022-08-19T11:51:16.721Z,5.70
2022-08-19T11:53:45.524Z,5.70
2022-08-19T11:56:14.578Z,5.38
2022-08-19T11:58:43.128Z,7.03
2022-08-19T12:01:16.439Z,6.03
2022-08-19T12:03:46.605Z,6.97
2022-08-19T12:06:18.829Z,6.15
2022-08-19T12:08:48.489Z,5.65
2022-08-19T12:11:18.074Z,5.38
2022-08-19T12:13:46.778Z,6.43
2022-08-19T12:16:18.669Z,6.45
2022-08-19T12:18:48.978Z,5.78
2022-08-19T12:21:22.098Z,5.68
2022-08-19T12:23:55.649Z,5.30
2022-08-19T12:26:25.377Z,5.68
2022-08-19T12:28:55.240Z,5.50
2022-08-19T12:31:25.171Z,5.47
2022-08-19T12:33:53.680Z,5.88
2022-08-19T12:36:24.714Z,6.13
2022-08-19T12:38:53.398Z,5.18
2022-08-19T12:41:22.877Z,6.45
2022-08-19T12:43:52.309Z,5.82
2022-08-19T12:46:22.290Z,5.50
2022-08-19T12:48:56.131Z,5.85
2022-08-19T12:51:24.609Z,5.25
2022-08-19T12:53:53.168Z,5.78
2022-08-19T12:56:23.380Z,5.30
2022-08-19T12:58:53.064Z,6.65
2022-08-19T13:01:22.796Z,6.90
2022-08-19T13:03:54.292Z,6.47
2022-08-19T13:06:22.757Z,6.65
2022-08-19T13:08:51.102Z,6.95
2022-08-19T13:11:25.510Z,6.38
2022-08-19T13:13:56.336Z,6.80
2022-08-19T13:16:24.598Z,6.03
2022-08-19T13:18:54.378Z,7.68
2022-08-19T13:21:26.707Z,6.90
2022-08-19T13:23:55.917Z,7.50
2022-08-19T13:26:24.496Z,6.63
2022-08-19T13:29:10.931Z,7.75
2022-08-19T13:32:00.894Z,7.53
2022-08-19T13:34:35.109Z,7.20
2022-08-19T13:37:05.286Z,7.70
2022-08-19T13:39:35.009Z,7.38
2022-08-19T13:42:05.704Z,7.25
2022-08-19T13:44:34.723Z,7.40
2022-08-19T13:47:07.765Z,6.47
2022-08-19T13:49:38.240Z,6.53
2022-08-19T13:52:07.584Z,6.57
2022-08-19T13:54:36.001Z,6.63
2022-08-19T13:57:04.623Z,5.72
2022-08-19T13:59:33.891Z,6.40
2022-08-19T14:02:02.860Z,6.28
2022-08-19T14:04:31.277Z,5.57
2022-08-19T14:07:00.725Z,5.88
2022-08-19T14:09:28.924Z,5.10
2022-08-19T14:11:57.170Z,5.10
2022-08-19T14:14:25.873Z,4.38
2022-08-19T14:16:53.981Z,4.53
2022-08-19T14:19:22.320Z,3.80
2022-08-19T14:21:51.729Z,3.70
2022-08-19T14:24:32.004Z,3.83
2022-08-19T14:27:07.621Z,3.45
2022-08-19T14:29:36.275Z,3.70
2022-08-19T14:32:05.109Z,3.22
2022-08-19T14:34:34.704Z,3.45
2022-08-19T14:37:02.818Z,3.47
2022-08-19T14:39:32.290Z,3.00
2022-08-19T14:42:00.706Z,3.38
2022-08-19T14:44:28.870Z,3.72
2022-08-19T14:46:57.742Z,3.40
2022-08-19T14:49:34.795Z,3.55
2022-08-19T14:52:05.415Z,3.40
2022-08-19T14:54:35.524Z,3.33
2022-08-19T14:57:04.057Z,3.35
2022-08-19T14:59:32.249Z,3.47
2022-08-19T15:02:33.947Z,3.50
2022-08-19T15:04:58.168Z,3.50
2022-08-19T15:07:29.120Z,3.97
2022-08-19T15:09:59.893Z,3.10
2022-08-19T15:12:28.184Z,3.58
2022-08-19T15:14:56.998Z,3.38
2022-08-19T15:17:41.471Z,3.55
2022-08-19T15:20:17.014Z,3.63
2022-08-19T15:22:46.119Z,4.13
2022-08-19T15:25:20.385Z,3.85
2022-08-19T15:27:49.224Z,4.22
2022-08-19T15:30:28.001Z,4.13
2022-08-19T15:32:57.063Z,3.92
2022-08-19T15:35:26.958Z,3.92
2022-08-19T15:37:56.916Z,3.60
2022-08-19T15:40:28.596Z,3.67
2022-08-19T15:42:59.101Z,3.90
2022-08-19T15:45:32.946Z,4.20
2022-08-19T15:48:02.340Z,3.40
2022-08-19T15:50:33.062Z,3.83
2022-08-19T15:53:05.852Z,4.00
2022-08-19T15:55:42.792Z,3.50
2022-08-19T15:58:32.794Z,3.80
2022-08-19T16:01:23.776Z,3.60
2022-08-19T16:04:14.938Z,3.53
2022-08-19T16:06:48.091Z,4.18
2022-08-19T16:09:23.657Z,3.58
2022-08-19T16:12:01.690Z,4.13
2022-08-19T16:14:32.731Z,3.92
2022-08-19T16:17:02.005Z,3.60
2022-08-19T16:19:30.994Z,3.60
2022-08-19T16:22:00.110Z,3.30
2022-08-19T16:24:29.717Z,3.17
2022-08-19T16:27:01.400Z,3.28
2022-08-19T16:29:33.912Z,3.40
2022-08-19T16:32:11.031Z,3.35
2022-08-19T16:34:41.490Z,3.33
2022-08-19T16:37:10.637Z,3.40
2022-08-19T16:39:39.883Z,2.97
2022-08-19T16:42:11.600Z,3.40
2022-08-19T16:44:44.259Z,3.53
2022-08-19T16:47:13.953Z,3.33
2022-08-19T16:49:53.387Z,3.15
2022-08-19T16:52:26.570Z,3.33
2022-08-19T16:54:54.859Z,3.20
2022-08-19T16:57:25.413Z,3.10
2022-08-19T16:59:53.669Z,3.47
2022-08-19T17:02:29.483Z,3.22
2022-08-19T17:04:59.273Z,3.67
2022-08-19T17:07:29.040Z,3.67
2022-08-19T17:09:58.100Z,3.75
2022-08-19T17:12:30.385Z,4.40
2022-08-19T17:15:02.194Z,4.22
2022-08-19T17:17:31.283Z,5.47
2022-08-19T17:20:01.185Z,5.57
2022-08-19T17:22:30.708Z,5.60
2022-08-19T17:24:59.535Z,6.10
2022-08-19T17:27:31.996Z,7.63
2022-08-19T17:30:02.903Z,9.55
2022-08-19T17:32:35.010Z,9.13
2022-08-19T17:35:05.065Z,10.00
2022-08-19T17:37:35.247Z,10.48
2022-08-19T17:40:06.220Z,9.57
2022-08-19T17:42:38.759Z,9.80
2022-08-19T17:45:11.292Z,9.00
2022-08-19T17:47:40.245Z,8.23
2022-08-19T17:50:13.978Z,8.23
2022-08-19T17:52:42.949Z,7.13
2022-08-19T17:55:12.839Z,7.53
2022-08-19T17:57:46.573Z,7.97
2022-08-19T18:00:17.055Z,6.50
2022-08-19T18:02:50.648Z,6.65
2022-08-19T18:05:21.026Z,6.75
2022-08-19T18:07:52.223Z,7.00
2022-08-19T18:10:24.549Z,6.88
2022-08-19T18:13:17.469Z,6.43
2022-08-19T18:15:47.721Z,7.28
2022-08-19T18:18:15.960Z,7.05
2022-08-19T18:20:45.626Z,8.52
2022-08-19T18:23:45.559Z,7.45
2022-08-19T18:26:03.393Z,8.60
2022-08-19T18:28:33.546Z,8.30
2022-08-19T18:31:02.726Z,8.23
2022-08-19T18:33:30.854Z,8.10
2022-08-19T18:36:00.329Z,7.38
2022-08-19T18:38:46.292Z,7.35
2022-08-19T18:41:33.123Z,8.43
2022-08-19T18:44:20.156Z,7.55
2022-08-19T18:47:06.336Z,7.05
2022-08-19T18:49:35.729Z,7.68
2022-08-19T18:52:06.254Z,7.15
2022-08-19T18:54:35.648Z,6.90
2022-08-19T18:57:05.788Z,6.75
2022-08-19T18:59:35.986Z,7.07
2022-08-19T19:02:05.433Z,5.90
2022-08-19T19:04:35.338Z,5.82
2022-08-19T19:07:04.942Z,4.90
2022-08-19T19:09:34.308Z,4.32
2022-08-19T19:12:06.449Z,4.40
2022-08-19T19:14:49.097Z,4.32
2022-08-19T19:17:18.653Z,3.80
2022-08-19T19:19:47.293Z,3.00
2022-08-19T19:22:20.670Z,3.53
2022-08-19T19:24:49.280Z,2.90
2022-08-19T19:27:20.480Z,3.40
2022-08-19T19:29:52.594Z,3.03
2022-08-19T19:32:23.916Z,3.10
2022-08-19T19:34:52.472Z,3.40
2022-08-19T19:37:21.056Z,2.95
2022-08-19T19:39:49.530Z,2.63
2022-08-19T19:42:22.689Z,2.55
2022-08-19T19:44:56.755Z,2.67
2022-08-19T19:47:28.244Z,2.15
2022-08-19T19:50:14.244Z,2.45
2022-08-19T19:52:45.825Z,2.10
2022-08-19T19:55:18.411Z,2.03
2022-08-19T19:57:47.380Z,1.95
2022-08-19T20:00:19.349Z,1.70
2022-08-19T20:02:50.354Z,1.98
2022-08-19T20:05:21.725Z,2.03
2022-08-19T20:08:09.501Z,1.77
2022-08-19T20:10:39.147Z,2.00
2022-08-19T20:13:09.197Z,1.48
2022-08-19T20:15:43.569Z,1.67
2022-08-19T20:18:14.447Z,1.55
2022-08-19T20:20:44.999Z,1.45
2022-08-19T20:23:13.484Z,1.23
2022-08-19T20:25:42.050Z,1.20
2022-08-19T20:28:12.335Z,1.45
2022-08-19T20:30:46.398Z,1.40
2022-08-19T20:33:15.766Z,1.42
2022-08-19T20:35:46.565Z,1.50
2022-08-19T20:38:15.817Z,1.40
2022-08-19T20:40:44.069Z,1.25
2022-08-19T20:43:14.991Z,1.25
2022-08-19T20:45:45.268Z,1.60
2022-08-19T20:48:13.631Z,1.40
2022-08-19T20:50:41.972Z,1.27
2022-08-19T20:53:13.767Z,1.20
2022-08-19T20:55:45.569Z,1.30
2022-08-19T20:58:14.701Z,1.27
2022-08-19T21:00:48.077Z,0.90
2022-08-19T21:03:20.419Z,1.02
2022-08-19T21:05:49.560Z,0.80
2022-08-19T21:08:19.112Z,1.42
2022-08-19T21:10:48.568Z,1.10
2022-08-19T21:13:17.981Z,1.20
2022-08-19T21:15:48.195Z,0.98
2022-08-19T21:18:20.093Z,0.82
2022-08-19T21:20:50.516Z,1.10
2022-08-19T21:23:25.849Z,1.00
2022-08-19T21:25:55.780Z,0.85
2022-08-19T21:28:35.689Z,1.02
2022-08-19T21:31:10.737Z,1.00
2022-08-19T21:33:39.790Z,0.60
2022-08-19T21:36:08.666Z,0.95
2022-08-19T21:38:38.337Z,0.90
2022-08-19T21:41:07.639Z,0.85
2022-08-19T21:43:38.907Z,1.10
2022-08-19T21:46:09.094Z,1.17
2022-08-19T21:48:37.903Z,1.08
2022-08-19T21:51:06.164Z,1.05
2022-08-19T21:53:34.899Z,0.80
2022-08-19T21:56:03.756Z,0.90
2022-08-19T21:58:31.863Z,1.05
2022-08-19T22:01:02.187Z,0.82
2022-08-19T22:03:31.837Z,0.80
2022-08-19T22:06:00.608Z,0.82
2022-08-19T22:08:31.703Z,0.95
2022-08-19T22:11:00.123Z,0.60
2022-08-19T22:13:32.413Z,0.95
2022-08-19T22:16:00.712Z,1.15
2022-08-19T22:18:29.420Z,0.98
2022-08-19T22:20:59.168Z,0.60
2022-08-19T22:23:27.301Z,1.10
2022-08-19T22:25:55.620Z,0.80
2022-08-19T22:28:28.001Z,1.00
2022-08-19T22:30:57.257Z,0.80
2022-08-19T22:33:27.699Z,1.00
2022-08-19T22:35:58.264Z,0.93
2022-08-19T22:38:27.464Z,0.80
2022-08-19T22:40:57.050Z,1.33
2022-08-19T22:43:32.193Z,0.93
2022-08-19T22:46:02.468Z,0.90
2022-08-19T22:48:32.650Z,1.13
2022-08-19T22:51:20.524Z,1.23
2022-08-19T22:53:48.820Z,0.98
2022-08-19T22:56:20.397Z,1.20
2022-08-19T22:58:50.722Z,0.95
2022-08-19T23:01:29.927Z,1.02
2022-08-19T23:04:03.724Z,0.80
2022-08-19T23:06:37.186Z,0.90
2022-08-19T23:09:09.282Z,1.08
2022-08-19T23:11:41.937Z,0.90
2022-08-19T23:14:12.811Z,1.00
2022-08-19T23:16:42.018Z,1.20
2022-08-19T23:19:12.033Z,0.80
2022-08-19T23:21:43.590Z,0.77
2022-08-19T23:24:12.794Z,0.90
2022-08-19T23:27:03.257Z,0.88
2022-08-19T23:29:50.382Z,1.00
2022-08-19T23:32:20.073Z,1.00
2022-08-19T23:34:48.736Z,1.10
2022-08-19T23:37:18.457Z,1.15
2022-08-19T23:39:47.037Z,1.00
2022-08-19T23:42:15.463Z,1.02
2022-08-19T23:44:52.043Z,1.20
2022-08-19T23:47:23.593Z,0.80
2022-08-19T23:49:52.223Z,1.20
2022-08-19T23:52:21.814Z,1.10
2022-08-19T23:54:49.954Z,1.15
2022-08-19T23:57:18.877Z,1.13
2022-08-19T23:59:47.018Z,0.98
